createdAt,value
2019-05-26T00:04:43.395Z,10.83
2019-05-26T00:09:38.564Z,5.23
2019-05-26T00:14:33.478Z,7.13
2019-05-26T00:19:28.378Z,5.77
2019-05-26T00:24:26.553Z,7.53
2019-05-26T00:29:21.443Z,7.60
2019-05-26T00:34:16.328Z,5.27
2019-05-26T00:39:11.303Z,4.77
2019-05-26T00:44:09.398Z,5.03
2019-05-26T00:49:04.436Z,5.13
2019-05-26T00:53:59.419Z,5.57
2019-05-26T00:58:54.449Z,7.27
2019-05-26T01:03:51.459Z,4.87
2019-05-26T01:08:46.341Z,5.20
2019-05-26T01:13:41.596Z,5.00
2019-05-26T01:18:36.571Z,4.97
2019-05-26T01:23:31.447Z,5.13
2019-05-26T01:28:32.577Z,6.97
2019-05-26T01:33:27.610Z,7.07
2019-05-26T01:38:24.463Z,6.87
2019-05-26T01:43:20.587Z,6.90
2019-05-26T01:48:15.492Z,7.80
2019-05-26T01:53:10.381Z,9.13
2019-05-26T01:58:05.772Z,7.10
2019-05-26T02:03:00.693Z,6.00
2019-05-26T02:07:55.642Z,5.47
2019-05-26T02:12:50.519Z,5.30
2019-05-26T02:17:45.532Z,6.30
2019-05-26T02:22:40.491Z,5.33
2019-05-26T02:27:35.465Z,4.83
2019-05-26T02:32:30.478Z,7.50
2019-05-26T02:37:25.521Z,6.47
2019-05-26T02:42:20.463Z,6.30
2019-05-26T02:47:15.337Z,4.67
2019-05-26T02:52:10.326Z,5.20
2019-05-26T02:57:05.279Z,5.10
2019-05-26T03:02:03.626Z,11.37
2019-05-26T03:06:58.048Z,5.83
2019-05-26T03:11:53.745Z,6.73
2019-05-26T03:16:48.688Z,5.17
2019-05-26T03:21:44.897Z,6.27
2019-05-26T03:26:39.972Z,8.43
2019-05-26T03:31:34.973Z,5.87
2019-05-26T03:36:29.912Z,6.20
2019-05-26T03:41:24.885Z,6.70
2019-05-26T03:46:22.950Z,7.03
2019-05-26T03:51:17.931Z,8.37
2019-05-26T03:56:12.920Z,5.13
2019-05-26T04:01:07.948Z,5.67
2019-05-26T04:06:03.007Z,8.27
2019-05-26T04:10:58.034Z,8.10
2019-05-26T04:15:53.068Z,5.37
2019-05-26T04:20:47.979Z,7.63
2019-05-26T04:25:42.870Z,6.67
2019-05-26T04:30:37.922Z,8.00
2019-05-26T04:35:32.928Z,5.93
2019-05-26T04:40:28.343Z,8.37
2019-05-26T04:45:23.389Z,6.97
2019-05-26T04:50:18.442Z,6.30
2019-05-26T04:55:13.809Z,6.60
2019-05-26T05:00:09.135Z,5.53
2019-05-26T05:05:05.454Z,5.50
2019-05-26T05:10:00.421Z,9.20
2019-05-26T05:14:55.446Z,9.13
2019-05-26T05:19:50.448Z,6.13
2019-05-26T05:24:45.377Z,4.90
2019-05-26T05:29:40.387Z,5.70
2019-05-26T05:34:35.341Z,3.50
2019-05-26T05:39:30.244Z,4.57
2019-05-26T05:44:25.243Z,3.60
2019-05-26T05:49:20.162Z,4.47
2019-05-26T05:54:20.912Z,4.13
2019-05-26T05:59:18.900Z,3.17
2019-05-26T06:04:13.865Z,3.60
2019-05-26T06:09:08.942Z,9.00
2019-05-26T06:14:05.176Z,3.93
2019-05-26T06:19:01.075Z,3.93
2019-05-26T06:23:55.939Z,7.00
2019-05-26T06:28:52.512Z,6.60
2019-05-26T06:33:47.452Z,4.97
2019-05-26T06:38:42.417Z,8.00
2019-05-26T06:43:37.468Z,4.80
2019-05-26T06:48:35.757Z,6.00
2019-05-26T06:53:30.841Z,4.23
2019-05-26T06:58:25.832Z,6.93
2019-05-26T07:03:20.757Z,6.07
2019-05-26T07:08:15.721Z,4.57
2019-05-26T07:13:10.754Z,4.03
2019-05-26T07:18:05.798Z,5.83
2019-05-26T07:23:00.952Z,3.50
2019-05-26T07:27:56.000Z,4.00
2019-05-26T07:32:52.868Z,4.53
2019-05-26T07:37:47.740Z,4.40
2019-05-26T07:42:42.841Z,3.83
2019-05-26T07:47:37.835Z,3.17
2019-05-26T07:52:32.692Z,6.00
2019-05-26T07:57:27.529Z,5.53
2019-05-26T08:02:22.476Z,10.10
2019-05-26T08:07:17.437Z,4.00
2019-05-26T08:12:25.068Z,4.97
2019-05-26T08:17:07.928Z,3.70
2019-05-26T08:22:02.892Z,5.10
2019-05-26T08:26:57.758Z,4.80
2019-05-26T08:31:52.603Z,3.80
2019-05-26T08:36:47.454Z,4.72
2019-05-26T08:41:42.302Z,4.70
2019-05-26T08:46:37.168Z,5.80
2019-05-26T08:51:32.406Z,4.67
2019-05-26T08:56:27.272Z,3.83
2019-05-26T09:01:22.124Z,5.87
2019-05-26T09:06:17.062Z,4.10
2019-05-26T09:11:12.311Z,5.80
2019-05-26T09:16:07.314Z,5.75
2019-05-26T09:21:02.235Z,6.60
2019-05-26T09:25:59.425Z,5.65
2019-05-26T09:30:54.405Z,6.60
2019-05-26T09:35:49.333Z,6.30
2019-05-26T09:40:44.635Z,4.65
2019-05-26T09:45:42.584Z,5.90
2019-05-26T09:50:37.595Z,3.27
2019-05-26T09:55:33.800Z,4.22
2019-05-26T10:00:28.739Z,5.87
2019-05-26T10:05:24.769Z,5.15
2019-05-26T10:10:19.735Z,3.77
2019-05-26T10:15:15.130Z,6.20
2019-05-26T10:20:10.541Z,3.33
2019-05-26T10:25:06.052Z,2.75
2019-05-26T10:30:00.942Z,4.22
2019-05-26T10:34:55.794Z,6.45
2019-05-26T10:39:52.680Z,3.85
2019-05-26T10:44:47.965Z,3.87
2019-05-26T10:49:42.841Z,3.92
2019-05-26T10:54:37.686Z,7.58
2019-05-26T10:59:32.835Z,3.15
2019-05-26T11:04:27.739Z,3.10
2019-05-26T11:09:23.001Z,8.95
2019-05-26T11:14:17.989Z,3.00
2019-05-26T11:19:12.983Z,3.35
2019-05-26T11:24:07.904Z,6.08
2019-05-26T11:29:02.811Z,3.00
2019-05-26T11:33:57.847Z,4.15
2019-05-26T11:38:53.181Z,3.67
2019-05-26T11:43:48.148Z,4.78
2019-05-26T11:48:43.408Z,3.20
2019-05-26T11:53:38.409Z,3.27
2019-05-26T11:58:35.266Z,4.62
2019-05-26T12:03:31.282Z,4.62
2019-05-26T12:08:26.428Z,5.22
2019-05-26T12:13:23.395Z,4.05
2019-05-26T12:18:18.279Z,4.12
2019-05-26T12:23:13.098Z,3.47
2019-05-26T12:28:11.221Z,3.17
2019-05-26T12:33:06.206Z,3.02
2019-05-26T12:38:01.123Z,2.50
2019-05-26T12:42:56.053Z,2.47
2019-05-26T12:47:50.995Z,3.35
2019-05-26T12:52:51.869Z,1.98
2019-05-26T12:57:47.207Z,2.35
2019-05-26T13:02:42.205Z,2.00
2019-05-26T13:07:39.185Z,2.33
2019-05-26T13:12:34.100Z,2.25
2019-05-26T13:17:29.007Z,2.00
2019-05-26T13:22:23.898Z,2.37
2019-05-26T13:27:18.986Z,1.70
2019-05-26T13:32:13.989Z,1.90
2019-05-26T13:37:08.906Z,3.45
2019-05-26T13:42:03.958Z,6.67
2019-05-26T13:46:58.938Z,2.22
2019-05-26T13:51:54.906Z,4.10
2019-05-26T13:56:49.865Z,1.80
2019-05-26T14:01:44.751Z,1.80
2019-05-26T14:06:39.667Z,2.20
2019-05-26T14:11:34.579Z,2.33
2019-05-26T14:16:30.839Z,1.32
2019-05-26T14:21:25.726Z,1.72
2019-05-26T14:26:20.769Z,3.42
2019-05-26T14:31:18.340Z,1.50
2019-05-26T14:36:13.254Z,1.70
2019-05-26T14:41:14.318Z,1.87
2019-05-26T14:46:11.587Z,5.33
2019-05-26T14:51:06.453Z,2.00
2019-05-26T14:56:01.304Z,1.65
2019-05-26T15:00:56.158Z,3.35
2019-05-26T15:06:05.584Z,1.52
2019-05-26T15:10:55.619Z,1.75
2019-05-26T15:15:51.545Z,1.50
2019-05-26T15:20:48.497Z,3.52
2019-05-26T15:25:45.373Z,1.80
2019-05-26T15:30:41.290Z,1.70
2019-05-26T15:35:36.451Z,3.50
2019-05-26T15:40:31.323Z,2.10
2019-05-26T15:45:32.288Z,2.10
2019-05-26T15:50:36.338Z,1.90
2019-05-26T15:55:31.278Z,1.92
2019-05-26T16:00:26.240Z,2.00
2019-05-26T16:05:27.052Z,1.87
2019-05-26T16:10:22.152Z,1.70
2019-05-26T16:15:17.235Z,2.42
2019-05-26T16:20:12.710Z,2.20
2019-05-26T16:25:07.902Z,2.30
2019-05-26T16:30:08.971Z,3.17
2019-05-26T16:35:04.139Z,2.00
2019-05-26T16:40:11.310Z,2.92
2019-05-26T16:45:12.457Z,2.20
2019-05-26T16:50:07.820Z,1.87
2019-05-26T16:55:04.874Z,2.15
2019-05-26T16:59:59.761Z,1.93
2019-05-26T17:04:54.714Z,1.90
2019-05-26T17:09:49.790Z,2.10
2019-05-26T17:14:44.704Z,2.17
2019-05-26T17:19:39.658Z,2.27
2019-05-26T17:24:40.461Z,2.27
2019-05-26T17:29:35.446Z,2.00
2019-05-26T17:34:30.396Z,1.75
2019-05-26T17:39:25.387Z,1.98
2019-05-26T17:44:20.850Z,2.98
2019-05-26T17:49:17.008Z,2.62
2019-05-26T17:54:11.980Z,2.15
2019-05-26T17:59:06.919Z,2.10
2019-05-26T18:04:05.321Z,4.33
2019-05-26T18:09:00.431Z,2.07
2019-05-26T18:13:55.718Z,2.20
2019-05-26T18:18:50.654Z,4.60
2019-05-26T18:23:45.645Z,2.20
2019-05-26T18:28:40.611Z,2.07
2019-05-26T18:33:36.624Z,2.50
2019-05-26T18:38:31.588Z,3.67
2019-05-26T18:43:26.618Z,2.20
2019-05-26T18:48:21.571Z,2.10
2019-05-26T18:53:17.304Z,2.33
2019-05-26T18:58:12.275Z,2.80
2019-05-26T19:03:07.230Z,2.10
2019-05-26T19:08:05.356Z,3.10
2019-05-26T19:13:03.314Z,2.00
2019-05-26T19:18:01.427Z,2.17
2019-05-26T19:22:58.085Z,2.23
2019-05-26T19:27:53.048Z,2.20
2019-05-26T19:32:48.036Z,2.10
2019-05-26T19:37:43.021Z,2.17
2019-05-26T19:42:37.931Z,2.37
2019-05-26T19:47:32.959Z,2.23
2019-05-26T19:52:28.017Z,5.30
2019-05-26T19:57:24.058Z,3.00
2019-05-26T20:02:20.079Z,2.40
2019-05-26T20:07:15.433Z,2.30
2019-05-26T20:12:10.508Z,2.67
2019-05-26T20:17:11.559Z,2.60
2019-05-26T20:22:06.605Z,2.50
2019-05-26T20:27:01.752Z,2.87
2019-05-26T20:31:56.699Z,3.33
2019-05-26T20:36:51.991Z,6.87
2019-05-26T20:41:46.990Z,2.97
2019-05-26T20:46:42.055Z,2.50
2019-05-26T20:51:38.199Z,2.40
2019-05-26T20:56:34.063Z,2.77
2019-05-26T21:01:30.095Z,2.27
2019-05-26T21:06:25.953Z,2.10
2019-05-26T21:11:28.195Z,2.50
2019-05-26T21:16:23.193Z,2.40
2019-05-26T21:21:28.689Z,2.47
2019-05-26T21:26:29.748Z,2.00
2019-05-26T21:31:27.718Z,3.40
2019-05-26T21:36:50.728Z,4.00
2019-05-26T21:41:45.603Z,2.60
2019-05-26T21:46:40.472Z,2.40
2019-05-26T21:51:37.445Z,2.40
2019-05-26T21:56:38.362Z,2.50
2019-05-26T22:01:34.962Z,2.60
2019-05-26T22:06:29.847Z,2.13
2019-05-26T22:11:24.828Z,4.10
2019-05-26T22:16:19.899Z,2.47
2019-05-26T22:21:22.593Z,2.60
2019-05-26T22:26:22.360Z,2.60
2019-05-26T22:31:17.448Z,2.63
2019-05-26T22:36:13.368Z,4.17
2019-05-26T22:41:08.328Z,2.03
2019-05-26T22:46:03.300Z,2.10
2019-05-26T22:51:08.404Z,1.83
2019-05-26T22:56:06.781Z,2.47
2019-05-26T23:01:07.878Z,2.63
2019-05-26T23:06:05.698Z,2.37
2019-05-26T23:11:00.639Z,2.20
2019-05-26T23:15:55.535Z,2.30
2019-05-26T23:21:03.013Z,2.47
2019-05-26T23:25:58.040Z,1.93
2019-05-26T23:30:53.016Z,2.23
2019-05-26T23:35:48.001Z,2.70
2019-05-26T23:40:43.062Z,2.33
2019-05-26T23:45:37.984Z,2.50
2019-05-26T23:50:52.627Z,2.30
2019-05-26T23:55:51.360Z,2.17
